sensor_id;sensor_type;location;lat;lon;timestamp;temperature;humidity
35523;DHT22;61478;50.820;4.330;2022-09-01T00:02:23;22.00;96.10
35523;DHT22;61478;50.820;4.330;2022-09-01T00:04:52;21.90;96.10
35523;DHT22;61478;50.820;4.330;2022-09-01T00:07:23;22.00;96.00
35523;DHT22;61478;50.820;4.330;2022-09-01T00:09:50;22.00;96.00
35523;DHT22;61478;50.820;4.330;2022-09-01T00:12:16;22.00;96.00
35523;DHT22;61478;50.820;4.330;2022-09-01T00:14:42;21.90;96.10
35523;DHT22;61478;50.820;4.330;2022-09-01T00:17:11;22.00;96.20
35523;DHT22;61478;50.820;4.330;2022-09-01T00:19:37;21.90;96.00
35523;DHT22;61478;50.820;4.330;2022-09-01T00:22:05;22.00;96.00
35523;DHT22;61478;50.820;4.330;2022-09-01T00:24:31;22.00;95.90
35523;DHT22;61478;50.820;4.330;2022-09-01T00:26:57;21.90;96.20
35523;DHT22;61478;50.820;4.330;2022-09-01T00:29:24;21.90;95.90
35523;DHT22;61478;50.820;4.330;2022-09-01T00:31:50;21.90;95.90
35523;DHT22;61478;50.820;4.330;2022-09-01T00:34:17;21.80;95.90
35523;DHT22;61478;50.820;4.330;2022-09-01T00:36:43;21.80;95.80
35523;DHT22;61478;50.820;4.330;2022-09-01T00:39:09;21.80;95.80
35523;DHT22;61478;50.820;4.330;2022-09-01T00:41:37;21.80;95.80
35523;DHT22;61478;50.820;4.330;2022-09-01T00:44:07;21.80;95.90
35523;DHT22;61478;50.820;4.330;2022-09-01T00:46:44;21.80;95.80
35523;DHT22;61478;50.820;4.330;2022-09-01T00:49:14;21.70;95.80
35523;DHT22;61478;50.820;4.330;2022-09-01T00:51:43;21.70;95.80
35523;DHT22;61478;50.820;4.330;2022-09-01T00:54:13;21.60;95.80
35523;DHT22;61478;50.820;4.330;2022-09-01T00:56:40;21.70;95.80
35523;DHT22;61478;50.820;4.330;2022-09-01T00:59:08;21.60;95.80
35523;DHT22;61478;50.820;4.330;2022-09-01T01:01:34;21.50;95.90
35523;DHT22;61478;50.820;4.330;2022-09-01T01:04:05;21.50;95.90
35523;DHT22;61478;50.820;4.330;2022-09-01T01:06:31;21.60;95.90
35523;DHT22;61478;50.820;4.330;2022-09-01T01:08:59;21.60;95.70
35523;DHT22;61478;50.820;4.330;2022-09-01T01:11:29;21.60;95.60
35523;DHT22;61478;50.820;4.330;2022-09-01T01:14:06;21.50;95.50
35523;DHT22;61478;50.820;4.330;2022-09-01T01:16:45;21.60;95.30
35523;DHT22;61478;50.820;4.330;2022-09-01T01:19:34;21.40;95.50
35523;DHT22;61478;50.820;4.330;2022-09-01T01:25:13;21.40;95.50
35523;DHT22;61478;50.820;4.330;2022-09-01T01:27:39;21.30;95.50
35523;DHT22;61478;50.820;4.330;2022-09-01T01:30:09;21.20;95.40
35523;DHT22;61478;50.820;4.330;2022-09-01T01:32:37;21.20;95.40
35523;DHT22;61478;50.820;4.330;2022-09-01T01:35:10;21.20;95.60
35523;DHT22;61478;50.820;4.330;2022-09-01T01:37:42;21.10;95.40
35523;DHT22;61478;50.820;4.330;2022-09-01T01:40:16;21.10;95.40
35523;DHT22;61478;50.820;4.330;2022-09-01T01:42:47;21.10;95.30
35523;DHT22;61478;50.820;4.330;2022-09-01T01:45:15;21.10;95.10
35523;DHT22;61478;50.820;4.330;2022-09-01T01:47:49;21.10;94.90
35523;DHT22;61478;50.820;4.330;2022-09-01T01:50:23;21.00;95.00
35523;DHT22;61478;50.820;4.330;2022-09-01T01:52:50;20.90;95.30
35523;DHT22;61478;50.820;4.330;2022-09-01T01:55:17;20.90;95.10
35523;DHT22;61478;50.820;4.330;2022-09-01T01:57:47;20.80;95.20
35523;DHT22;61478;50.820;4.330;2022-09-01T02:00:22;20.80;95.10
35523;DHT22;61478;50.820;4.330;2022-09-01T02:02:50;20.90;95.10
35523;DHT22;61478;50.820;4.330;2022-09-01T02:05:24;20.90;95.10
35523;DHT22;61478;50.820;4.330;2022-09-01T02:07:55;20.80;95.10
35523;DHT22;61478;50.820;4.330;2022-09-01T02:10:23;20.80;95.20
35523;DHT22;61478;50.820;4.330;2022-09-01T02:12:49;20.80;95.10
35523;DHT22;61478;50.820;4.330;2022-09-01T02:15:15;20.70;95.30
35523;DHT22;61478;50.820;4.330;2022-09-01T02:17:41;20.60;95.50
35523;DHT22;61478;50.820;4.330;2022-09-01T02:20:12;20.70;95.30
35523;DHT22;61478;50.820;4.330;2022-09-01T02:22:40;20.80;95.20
35523;DHT22;61478;50.820;4.330;2022-09-01T02:25:09;20.80;95.20
35523;DHT22;61478;50.820;4.330;2022-09-01T02:27:35;20.80;95.00
35523;DHT22;61478;50.820;4.330;2022-09-01T02:30:05;20.90;95.00
35523;DHT22;61478;50.820;4.330;2022-09-01T02:32:36;20.80;95.00
35523;DHT22;61478;50.820;4.330;2022-09-01T02:35:02;20.70;95.00
35523;DHT22;61478;50.820;4.330;2022-09-01T02:37:32;20.70;95.10
35523;DHT22;61478;50.820;4.330;2022-09-01T02:39:58;20.70;95.10
35523;DHT22;61478;50.820;4.330;2022-09-01T02:42:24;20.70;95.30
35523;DHT22;61478;50.820;4.330;2022-09-01T02:44:55;20.70;95.30
35523;DHT22;61478;50.820;4.330;2022-09-01T02:47:22;20.70;95.20
35523;DHT22;61478;50.820;4.330;2022-09-01T02:49:49;20.70;95.20
35523;DHT22;61478;50.820;4.330;2022-09-01T02:52:15;20.60;95.30
35523;DHT22;61478;50.820;4.330;2022-09-01T02:54:43;20.60;95.20
35523;DHT22;61478;50.820;4.330;2022-09-01T02:57:11;20.60;95.20
35523;DHT22;61478;50.820;4.330;2022-09-01T02:59:37;20.60;95.10
35523;DHT22;61478;50.820;4.330;2022-09-01T03:02:03;20.50;95.20
35523;DHT22;61478;50.820;4.330;2022-09-01T03:04:31;20.50;95.20
35523;DHT22;61478;50.820;4.330;2022-09-01T03:07:03;20.20;95.70
35523;DHT22;61478;50.820;4.330;2022-09-01T03:09:29;20.10;95.90
35523;DHT22;61478;50.820;4.330;2022-09-01T03:11:57;20.10;96.30
35523;DHT22;61478;50.820;4.330;2022-09-01T03:14:24;20.20;96.00
35523;DHT22;61478;50.820;4.330;2022-09-01T03:16:50;20.20;96.00
35523;DHT22;61478;50.820;4.330;2022-09-01T03:19:16;20.30;96.00
35523;DHT22;61478;50.820;4.330;2022-09-01T03:21:44;20.20;95.90
35523;DHT22;61478;50.820;4.330;2022-09-01T03:24:14;20.30;95.90
35523;DHT22;61478;50.820;4.330;2022-09-01T03:26:42;20.30;95.90
35523;DHT22;61478;50.820;4.330;2022-09-01T03:29:09;20.20;96.00
35523;DHT22;61478;50.820;4.330;2022-09-01T03:31:35;20.10;96.20
35523;DHT22;61478;50.820;4.330;2022-09-01T03:34:02;20.10;96.30
35523;DHT22;61478;50.820;4.330;2022-09-01T03:36:30;20.10;96.40
35523;DHT22;61478;50.820;4.330;2022-09-01T03:38:58;20.10;96.50
35523;DHT22;61478;50.820;4.330;2022-09-01T03:41:26;20.10;96.50
35523;DHT22;61478;50.820;4.330;2022-09-01T03:43:57;20.10;96.50
35523;DHT22;61478;50.820;4.330;2022-09-01T03:46:25;20.10;96.60
35523;DHT22;61478;50.820;4.330;2022-09-01T03:48:55;20.20;96.60
35523;DHT22;61478;50.820;4.330;2022-09-01T03:51:23;20.20;96.60
35523;DHT22;61478;50.820;4.330;2022-09-01T03:53:52;20.20;96.50
35523;DHT22;61478;50.820;4.330;2022-09-01T03:56:23;20.20;96.60
35523;DHT22;61478;50.820;4.330;2022-09-01T03:58:53;20.20;96.60
35523;DHT22;61478;50.820;4.330;2022-09-01T04:01:21;20.30;96.50
35523;DHT22;61478;50.820;4.330;2022-09-01T04:03:46;20.30;96.50
35523;DHT22;61478;50.820;4.330;2022-09-01T04:06:14;20.20;96.50
35523;DHT22;61478;50.820;4.330;2022-09-01T04:08:43;20.30;96.50
35523;DHT22;61478;50.820;4.330;2022-09-01T04:11:15;20.40;96.40
35523;DHT22;61478;50.820;4.330;2022-09-01T04:13:43;20.40;96.60
35523;DHT22;61478;50.820;4.330;2022-09-01T04:16:28;20.40;96.70
35523;DHT22;61478;50.820;4.330;2022-09-01T04:19:15;20.40;96.80
35523;DHT22;61478;50.820;4.330;2022-09-01T04:21:46;20.20;97.30
35523;DHT22;61478;50.820;4.330;2022-09-01T04:24:12;20.20;97.00
35523;DHT22;61478;50.820;4.330;2022-09-01T04:26:40;20.30;97.00
35523;DHT22;61478;50.820;4.330;2022-09-01T04:29:06;20.30;97.20
35523;DHT22;61478;50.820;4.330;2022-09-01T04:31:35;20.20;97.80
35523;DHT22;61478;50.820;4.330;2022-09-01T04:34:03;20.10;97.80
35523;DHT22;61478;50.820;4.330;2022-09-01T04:36:40;20.00;97.90
35523;DHT22;61478;50.820;4.330;2022-09-01T04:39:08;19.90;98.30
35523;DHT22;61478;50.820;4.330;2022-09-01T04:41:36;19.70;98.90
35523;DHT22;61478;50.820;4.330;2022-09-01T04:44:04;19.70;99.30
35523;DHT22;61478;50.820;4.330;2022-09-01T04:46:32;19.70;99.10
35523;DHT22;61478;50.820;4.330;2022-09-01T04:49:04;19.60;99.80
35523;DHT22;61478;50.820;4.330;2022-09-01T04:51:40;19.60;99.90
35523;DHT22;61478;50.820;4.330;2022-09-01T04:54:07;19.70;99.20
35523;DHT22;61478;50.820;4.330;2022-09-01T04:56:35;19.80;99.00
35523;DHT22;61478;50.820;4.330;2022-09-01T04:59:02;19.80;98.80
35523;DHT22;61478;50.820;4.330;2022-09-01T05:01:33;19.90;98.70
35523;DHT22;61478;50.820;4.330;2022-09-01T05:04:17;19.90;98.60
35523;DHT22;61478;50.820;4.330;2022-09-01T05:06:47;19.80;98.80
35523;DHT22;61478;50.820;4.330;2022-09-01T05:09:16;19.80;98.80
35523;DHT22;61478;50.820;4.330;2022-09-01T05:11:42;19.80;98.90
35523;DHT22;61478;50.820;4.330;2022-09-01T05:14:13;19.80;99.00
35523;DHT22;61478;50.820;4.330;2022-09-01T05:16:39;19.90;99.00
35523;DHT22;61478;50.820;4.330;2022-09-01T05:19:08;20.00;98.70
35523;DHT22;61478;50.820;4.330;2022-09-01T05:21:48;19.90;98.80
35523;DHT22;61478;50.820;4.330;2022-09-01T05:24:16;19.80;99.20
35523;DHT22;61478;50.820;4.330;2022-09-01T05:26:44;19.80;99.30
35523;DHT22;61478;50.820;4.330;2022-09-01T05:29:12;19.60;99.60
35523;DHT22;61478;50.820;4.330;2022-09-01T05:31:43;19.70;99.80
35523;DHT22;61478;50.820;4.330;2022-09-01T05:34:10;19.60;99.90
35523;DHT22;61478;50.820;4.330;2022-09-01T05:36:40;19.70;99.90
35523;DHT22;61478;50.820;4.330;2022-09-01T05:39:07;19.60;99.90
35523;DHT22;61478;50.820;4.330;2022-09-01T05:41:35;19.50;99.90
35523;DHT22;61478;50.820;4.330;2022-09-01T05:44:03;19.40;99.90
35523;DHT22;61478;50.820;4.330;2022-09-01T05:46:33;19.60;99.90
35523;DHT22;61478;50.820;4.330;2022-09-01T05:49:00;19.50;99.90
35523;DHT22;61478;50.820;4.330;2022-09-01T05:51:28;19.50;99.90
35523;DHT22;61478;50.820;4.330;2022-09-01T05:53:56;19.60;99.90
35523;DHT22;61478;50.820;4.330;2022-09-01T05:56:27;19.70;99.90
35523;DHT22;61478;50.820;4.330;2022-09-01T05:58:54;19.60;99.90
35523;DHT22;61478;50.820;4.330;2022-09-01T06:01:22;19.60;99.90
35523;DHT22;61478;50.820;4.330;2022-09-01T06:03:52;19.60;99.90
35523;DHT22;61478;50.820;4.330;2022-09-01T06:06:26;19.70;99.90
35523;DHT22;61478;50.820;4.330;2022-09-01T06:08:52;19.70;99.90
35523;DHT22;61478;50.820;4.330;2022-09-01T06:11:24;19.80;99.90
35523;DHT22;61478;50.820;4.330;2022-09-01T06:13:52;19.70;99.90
35523;DHT22;61478;50.820;4.330;2022-09-01T06:16:22;19.70;99.90
35523;DHT22;61478;50.820;4.330;2022-09-01T06:18:49;19.60;99.90
35523;DHT22;61478;50.820;4.330;2022-09-01T06:21:18;19.60;99.90
35523;DHT22;61478;50.820;4.330;2022-09-01T06:23:44;19.70;99.90
35523;DHT22;61478;50.820;4.330;2022-09-01T06:26:22;19.70;99.90
35523;DHT22;61478;50.820;4.330;2022-09-01T06:28:48;19.80;99.90
35523;DHT22;61478;50.820;4.330;2022-09-01T06:31:27;19.80;99.90
35523;DHT22;61478;50.820;4.330;2022-09-01T06:33:54;19.80;99.90
35523;DHT22;61478;50.820;4.330;2022-09-01T06:36:22;19.90;99.90
35523;DHT22;61478;50.820;4.330;2022-09-01T06:38:49;19.90;99.90
35523;DHT22;61478;50.820;4.330;2022-09-01T06:41:16;20.00;99.90
35523;DHT22;61478;50.820;4.330;2022-09-01T06:43:50;20.10;99.90
35523;DHT22;61478;50.820;4.330;2022-09-01T06:46:19;20.20;99.90
35523;DHT22;61478;50.820;4.330;2022-09-01T06:48:46;20.10;99.90
35523;DHT22;61478;50.820;4.330;2022-09-01T06:51:18;20.10;99.90
35523;DHT22;61478;50.820;4.330;2022-09-01T06:53:46;20.10;99.90
35523;DHT22;61478;50.820;4.330;2022-09-01T06:56:16;20.10;99.90
35523;DHT22;61478;50.820;4.330;2022-09-01T06:58:45;20.00;99.90
35523;DHT22;61478;50.820;4.330;2022-09-01T07:01:14;20.10;99.90
35523;DHT22;61478;50.820;4.330;2022-09-01T07:03:47;20.10;99.90
35523;DHT22;61478;50.820;4.330;2022-09-01T07:06:16;20.20;99.90
35523;DHT22;61478;50.820;4.330;2022-09-01T07:08:42;20.30;99.90
35523;DHT22;61478;50.820;4.330;2022-09-01T07:11:22;20.50;99.90
35523;DHT22;61478;50.820;4.330;2022-09-01T07:13:54;20.50;99.90
35523;DHT22;61478;50.820;4.330;2022-09-01T07:16:22;20.40;99.90
35523;DHT22;61478;50.820;4.330;2022-09-01T07:18:55;20.40;99.90
35523;DHT22;61478;50.820;4.330;2022-09-01T07:21:23;20.40;99.90
35523;DHT22;61478;50.820;4.330;2022-09-01T07:23:50;20.50;99.90
35523;DHT22;61478;50.820;4.330;2022-09-01T07:26:17;20.60;99.90
35523;DHT22;61478;50.820;4.330;2022-09-01T07:28:49;20.60;99.90
35523;DHT22;61478;50.820;4.330;2022-09-01T07:31:29;20.50;99.90
35523;DHT22;61478;50.820;4.330;2022-09-01T07:33:59;20.50;99.90
35523;DHT22;61478;50.820;4.330;2022-09-01T07:36:26;20.70;99.90
35523;DHT22;61478;50.820;4.330;2022-09-01T07:38:52;20.80;99.90
35523;DHT22;61478;50.820;4.330;2022-09-01T07:41:24;20.90;99.90
35523;DHT22;61478;50.820;4.330;2022-09-01T07:43:52;20.90;99.90
35523;DHT22;61478;50.820;4.330;2022-09-01T07:46:20;21.00;99.90
35523;DHT22;61478;50.820;4.330;2022-09-01T07:48:48;21.00;99.90
35523;DHT22;61478;50.820;4.330;2022-09-01T07:51:16;21.00;99.90
35523;DHT22;61478;50.820;4.330;2022-09-01T07:53:46;21.00;99.90
35523;DHT22;61478;50.820;4.330;2022-09-01T07:56:17;20.90;99.90
35523;DHT22;61478;50.820;4.330;2022-09-01T07:58:45;21.10;99.90
35523;DHT22;61478;50.820;4.330;2022-09-01T08:01:15;21.20;99.90
35523;DHT22;61478;50.820;4.330;2022-09-01T08:03:48;21.40;99.90
35523;DHT22;61478;50.820;4.330;2022-09-01T08:06:17;21.40;99.90
35523;DHT22;61478;50.820;4.330;2022-09-01T08:08:44;21.40;99.90
35523;DHT22;61478;50.820;4.330;2022-09-01T08:11:17;21.30;99.90
35523;DHT22;61478;50.820;4.330;2022-09-01T08:13:44;21.40;99.90
35523;DHT22;61478;50.820;4.330;2022-09-01T08:16:10;21.40;99.90
35523;DHT22;61478;50.820;4.330;2022-09-01T08:18:36;21.50;99.90
35523;DHT22;61478;50.820;4.330;2022-09-01T08:21:07;21.70;99.90
35523;DHT22;61478;50.820;4.330;2022-09-01T08:23:34;21.70;99.90
35523;DHT22;61478;50.820;4.330;2022-09-01T08:26:07;21.70;99.90
35523;DHT22;61478;50.820;4.330;2022-09-01T08:28:34;21.80;99.90
35523;DHT22;61478;50.820;4.330;2022-09-01T08:31:04;21.80;99.90
35523;DHT22;61478;50.820;4.330;2022-09-01T08:33:30;21.80;99.90
35523;DHT22;61478;50.820;4.330;2022-09-01T08:36:00;21.90;99.90
35523;DHT22;61478;50.820;4.330;2022-09-01T08:38:26;21.90;99.90
35523;DHT22;61478;50.820;4.330;2022-09-01T08:40:55;22.00;99.90
35523;DHT22;61478;50.820;4.330;2022-09-01T08:46:23;22.10;99.90
35523;DHT22;61478;50.820;4.330;2022-09-01T08:48:58;22.00;99.90
35523;DHT22;61478;50.820;4.330;2022-09-01T08:51:38;22.00;99.90
35523;DHT22;61478;50.820;4.330;2022-09-01T08:57:07;22.20;99.90
35523;DHT22;61478;50.820;4.330;2022-09-01T08:59:35;22.20;99.90
35523;DHT22;61478;50.820;4.330;2022-09-01T09:07:29;22.60;99.90
35523;DHT22;61478;50.820;4.330;2022-09-01T09:10:22;22.70;99.90
35523;DHT22;61478;50.820;4.330;2022-09-01T09:18:32;23.20;99.90
35523;DHT22;61478;50.820;4.330;2022-09-01T09:21:18;23.20;99.90
35523;DHT22;61478;50.820;4.330;2022-09-01T09:23:49;23.30;99.70
35523;DHT22;61478;50.820;4.330;2022-09-01T09:26:15;23.40;99.80
35523;DHT22;61478;50.820;4.330;2022-09-01T09:28:46;23.60;99.30
35523;DHT22;61478;50.820;4.330;2022-09-01T09:33:51;25.50;96.20
35523;DHT22;61478;50.820;4.330;2022-09-01T09:36:21;26.30;94.50
35523;DHT22;61478;50.820;4.330;2022-09-01T09:39:12;27.10;93.20
35523;DHT22;61478;50.820;4.330;2022-09-01T09:41:39;28.00;90.90
35523;DHT22;61478;50.820;4.330;2022-09-01T09:44:25;28.70;90.20
35523;DHT22;61478;50.820;4.330;2022-09-01T09:46:52;28.90;86.90
35523;DHT22;61478;50.820;4.330;2022-09-01T09:49:21;29.20;85.90
35523;DHT22;61478;50.820;4.330;2022-09-01T09:51:53;29.60;84.10
35523;DHT22;61478;50.820;4.330;2022-09-01T09:54:31;29.90;83.10
35523;DHT22;61478;50.820;4.330;2022-09-01T09:57:12;30.00;82.00
35523;DHT22;61478;50.820;4.330;2022-09-01T10:05:00;30.20;79.30
35523;DHT22;61478;50.820;4.330;2022-09-01T10:07:37;30.10;78.80
35523;DHT22;61478;50.820;4.330;2022-09-01T10:10:06;30.30;78.60
35523;DHT22;61478;50.820;4.330;2022-09-01T10:12:33;30.40;77.30
35523;DHT22;61478;50.820;4.330;2022-09-01T10:15:05;30.10;75.50
35523;DHT22;61478;50.820;4.330;2022-09-01T10:17:39;30.30;74.10
35523;DHT22;61478;50.820;4.330;2022-09-01T10:20:20;30.40;72.20
35523;DHT22;61478;50.820;4.330;2022-09-01T10:22:48;30.60;71.90
35523;DHT22;61478;50.820;4.330;2022-09-01T10:25:33;30.10;71.70
35523;DHT22;61478;50.820;4.330;2022-09-01T10:28:11;29.90;71.80
35523;DHT22;61478;50.820;4.330;2022-09-01T10:30:42;30.10;71.40
35523;DHT22;61478;50.820;4.330;2022-09-01T10:33:13;30.30;71.20
35523;DHT22;61478;50.820;4.330;2022-09-01T10:35:42;30.40;70.70
35523;DHT22;61478;50.820;4.330;2022-09-01T10:38:27;30.40;67.40
35523;DHT22;61478;50.820;4.330;2022-09-01T10:40:57;30.20;66.60
35523;DHT22;61478;50.820;4.330;2022-09-01T10:43:41;30.60;68.30
35523;DHT22;61478;50.820;4.330;2022-09-01T10:48:48;30.30;66.70
35523;DHT22;61478;50.820;4.330;2022-09-01T10:53:47;30.20;68.50
35523;DHT22;61478;50.820;4.330;2022-09-01T11:04:07;30.40;67.20
35523;DHT22;61478;50.820;4.330;2022-09-01T11:07:01;30.80;65.10
35523;DHT22;61478;50.820;4.330;2022-09-01T11:12:23;30.60;63.70
35523;DHT22;61478;50.820;4.330;2022-09-01T11:14:59;30.70;62.40
35523;DHT22;61478;50.820;4.330;2022-09-01T11:17:27;31.00;62.20
35523;DHT22;61478;50.820;4.330;2022-09-01T11:22:57;31.40;61.50
35523;DHT22;61478;50.820;4.330;2022-09-01T11:36:26;31.10;60.30
35523;DHT22;61478;50.820;4.330;2022-09-01T11:45:22;30.80;61.00
35523;DHT22;61478;50.820;4.330;2022-09-01T11:47:51;30.50;61.50
35523;DHT22;61478;50.820;4.330;2022-09-01T11:50:26;30.70;60.20
35523;DHT22;61478;50.820;4.330;2022-09-01T11:53:00;30.70;59.70
35523;DHT22;61478;50.820;4.330;2022-09-01T11:57:56;30.60;62.80
35523;DHT22;61478;50.820;4.330;2022-09-01T12:00:34;30.50;62.30
35523;DHT22;61478;50.820;4.330;2022-09-01T12:03:25;30.50;59.70
35523;DHT22;61478;50.820;4.330;2022-09-01T12:05:58;30.40;60.20
35523;DHT22;61478;50.820;4.330;2022-09-01T12:08:29;30.60;59.30
35523;DHT22;61478;50.820;4.330;2022-09-01T12:11:30;30.10;59.10
35523;DHT22;61478;50.820;4.330;2022-09-01T12:14:00;30.00;60.30
35523;DHT22;61478;50.820;4.330;2022-09-01T12:16:28;30.30;59.60
35523;DHT22;61478;50.820;4.330;2022-09-01T12:18:56;30.30;59.80
35523;DHT22;61478;50.820;4.330;2022-09-01T12:21:37;30.30;59.50
35523;DHT22;61478;50.820;4.330;2022-09-01T12:24:16;30.40;59.90
35523;DHT22;61478;50.820;4.330;2022-09-01T12:26:44;30.40;59.20
35523;DHT22;61478;50.820;4.330;2022-09-01T12:29:12;30.50;59.20
35523;DHT22;61478;50.820;4.330;2022-09-01T12:31:40;30.30;60.20
35523;DHT22;61478;50.820;4.330;2022-09-01T12:39:37;29.50;60.30
35523;DHT22;61478;50.820;4.330;2022-09-01T12:44:43;29.70;61.80
35523;DHT22;61478;50.820;4.330;2022-09-01T12:47:17;29.90;60.00
35523;DHT22;61478;50.820;4.330;2022-09-01T12:49:59;29.50;61.30
35523;DHT22;61478;50.820;4.330;2022-09-01T12:52:29;29.40;61.90
35523;DHT22;61478;50.820;4.330;2022-09-01T12:57:35;29.60;64.70
35523;DHT22;61478;50.820;4.330;2022-09-01T13:00:25;29.40;60.70
35523;DHT22;61478;50.820;4.330;2022-09-01T13:03:11;29.50;61.60
35523;DHT22;61478;50.820;4.330;2022-09-01T13:05:40;29.70;62.10
35523;DHT22;61478;50.820;4.330;2022-09-01T13:08:09;29.80;61.60
35523;DHT22;61478;50.820;4.330;2022-09-01T13:10:38;29.90;61.90
35523;DHT22;61478;50.820;4.330;2022-09-01T13:13:06;30.00;61.50
35523;DHT22;61478;50.820;4.330;2022-09-01T13:15:35;29.90;60.00
35523;DHT22;61478;50.820;4.330;2022-09-01T13:18:01;29.60;60.10
35523;DHT22;61478;50.820;4.330;2022-09-01T13:20:27;29.30;60.30
35523;DHT22;61478;50.820;4.330;2022-09-01T13:22:53;29.40;61.40
35523;DHT22;61478;50.820;4.330;2022-09-01T13:25:20;29.30;60.80
35523;DHT22;61478;50.820;4.330;2022-09-01T13:27:47;29.10;61.20
35523;DHT22;61478;50.820;4.330;2022-09-01T13:30:17;29.00;61.30
35523;DHT22;61478;50.820;4.330;2022-09-01T13:32:45;28.80;61.70
35523;DHT22;61478;50.820;4.330;2022-09-01T13:35:17;28.70;62.30
35523;DHT22;61478;50.820;4.330;2022-09-01T13:37:47;28.90;62.80
35523;DHT22;61478;50.820;4.330;2022-09-01T13:40:14;28.90;62.30
35523;DHT22;61478;50.820;4.330;2022-09-01T13:42:42;29.00;62.60
35523;DHT22;61478;50.820;4.330;2022-09-01T13:45:09;29.10;62.00
35523;DHT22;61478;50.820;4.330;2022-09-01T13:47:38;28.50;62.60
35523;DHT22;61478;50.820;4.330;2022-09-01T13:50:05;28.40;62.70
35523;DHT22;61478;50.820;4.330;2022-09-01T13:52:31;28.40;63.30
35523;DHT22;61478;50.820;4.330;2022-09-01T13:54:57;28.50;63.40
35523;DHT22;61478;50.820;4.330;2022-09-01T13:57:23;28.60;64.10
35523;DHT22;61478;50.820;4.330;2022-09-01T13:59:50;28.80;63.70
35523;DHT22;61478;50.820;4.330;2022-09-01T14:02:16;28.80;62.90
35523;DHT22;61478;50.820;4.330;2022-09-01T14:04:42;28.70;63.10
35523;DHT22;61478;50.820;4.330;2022-09-01T14:07:08;28.60;61.60
35523;DHT22;61478;50.820;4.330;2022-09-01T14:09:33;28.60;62.60
35523;DHT22;61478;50.820;4.330;2022-09-01T14:11:59;28.60;61.20
35523;DHT22;61478;50.820;4.330;2022-09-01T14:14:25;28.50;62.30
35523;DHT22;61478;50.820;4.330;2022-09-01T14:16:51;28.50;62.80
35523;DHT22;61478;50.820;4.330;2022-09-01T14:19:17;28.40;61.10
35523;DHT22;61478;50.820;4.330;2022-09-01T14:21:43;28.50;63.00
35523;DHT22;61478;50.820;4.330;2022-09-01T14:24:09;28.50;62.50
35523;DHT22;61478;50.820;4.330;2022-09-01T14:26:35;28.50;63.10
35523;DHT22;61478;50.820;4.330;2022-09-01T14:29:01;28.30;62.20
35523;DHT22;61478;50.820;4.330;2022-09-01T14:31:27;28.30;63.50
35523;DHT22;61478;50.820;4.330;2022-09-01T14:33:54;28.30;62.60
35523;DHT22;61478;50.820;4.330;2022-09-01T14:36:25;28.20;63.50
35523;DHT22;61478;50.820;4.330;2022-09-01T14:38:52;28.10;63.70
35523;DHT22;61478;50.820;4.330;2022-09-01T14:41:19;28.10;62.00
35523;DHT22;61478;50.820;4.330;2022-09-01T14:43:46;28.10;62.40
35523;DHT22;61478;50.820;4.330;2022-09-01T14:46:13;28.10;61.80
35523;DHT22;61478;50.820;4.330;2022-09-01T14:48:40;28.20;62.20
35523;DHT22;61478;50.820;4.330;2022-09-01T14:51:07;28.10;64.80
35523;DHT22;61478;50.820;4.330;2022-09-01T14:53:34;28.00;61.90
35523;DHT22;61478;50.820;4.330;2022-09-01T14:56:01;28.00;63.60
35523;DHT22;61478;50.820;4.330;2022-09-01T14:58:28;28.00;62.30
35523;DHT22;61478;50.820;4.330;2022-09-01T15:00:55;27.70;62.70
35523;DHT22;61478;50.820;4.330;2022-09-01T15:03:22;27.80;61.90
35523;DHT22;61478;50.820;4.330;2022-09-01T15:05:52;27.90;66.10
35523;DHT22;61478;50.820;4.330;2022-09-01T15:08:19;27.80;62.60
35523;DHT22;61478;50.820;4.330;2022-09-01T15:10:45;27.80;62.90
35523;DHT22;61478;50.820;4.330;2022-09-01T15:13:11;27.90;63.00
35523;DHT22;61478;50.820;4.330;2022-09-01T15:15:39;28.10;62.40
35523;DHT22;61478;50.820;4.330;2022-09-01T15:18:05;28.10;60.90
35523;DHT22;61478;50.820;4.330;2022-09-01T15:20:31;28.20;61.10
35523;DHT22;61478;50.820;4.330;2022-09-01T15:23:14;28.30;61.50
35523;DHT22;61478;50.820;4.330;2022-09-01T15:25:41;28.20;64.00
35523;DHT22;61478;50.820;4.330;2022-09-01T15:28:07;28.10;62.60
35523;DHT22;61478;50.820;4.330;2022-09-01T15:30:34;28.00;64.10
35523;DHT22;61478;50.820;4.330;2022-09-01T15:33:00;28.00;61.10
35523;DHT22;61478;50.820;4.330;2022-09-01T15:35:30;28.00;62.90
35523;DHT22;61478;50.820;4.330;2022-09-01T15:37:56;27.90;60.30
35523;DHT22;61478;50.820;4.330;2022-09-01T15:40:23;28.00;61.20
35523;DHT22;61478;50.820;4.330;2022-09-01T15:42:49;28.00;60.60
35523;DHT22;61478;50.820;4.330;2022-09-01T15:45:18;28.00;62.00
35523;DHT22;61478;50.820;4.330;2022-09-01T15:47:44;27.80;61.60
35523;DHT22;61478;50.820;4.330;2022-09-01T15:50:15;27.80;62.30
35523;DHT22;61478;50.820;4.330;2022-09-01T15:52:53;27.80;60.90
35523;DHT22;61478;50.820;4.330;2022-09-01T15:55:22;28.00;59.90
35523;DHT22;61478;50.820;4.330;2022-09-01T15:57:48;28.00;59.50
35523;DHT22;61478;50.820;4.330;2022-09-01T16:00:16;28.00;59.30
35523;DHT22;61478;50.820;4.330;2022-09-01T16:02:42;27.80;59.00
35523;DHT22;61478;50.820;4.330;2022-09-01T16:05:12;28.00;59.90
35523;DHT22;61478;50.820;4.330;2022-09-01T16:07:38;27.90;59.30
35523;DHT22;61478;50.820;4.330;2022-09-01T16:10:05;27.80;58.80
35523;DHT22;61478;50.820;4.330;2022-09-01T16:12:40;27.70;59.30
35523;DHT22;61478;50.820;4.330;2022-09-01T16:15:11;27.70;60.40
35523;DHT22;61478;50.820;4.330;2022-09-01T16:17:56;27.50;60.90
35523;DHT22;61478;50.820;4.330;2022-09-01T16:20:58;27.50;59.40
35523;DHT22;61478;50.820;4.330;2022-09-01T16:23:35;27.50;59.00
35523;DHT22;61478;50.820;4.330;2022-09-01T16:26:02;27.40;59.10
35523;DHT22;61478;50.820;4.330;2022-09-01T16:28:30;27.60;59.60
35523;DHT22;61478;50.820;4.330;2022-09-01T16:31:10;27.50;58.90
35523;DHT22;61478;50.820;4.330;2022-09-01T16:33:37;27.60;58.50
35523;DHT22;61478;50.820;4.330;2022-09-01T16:39:15;27.30;58.70
35523;DHT22;61478;50.820;4.330;2022-09-01T16:43:03;27.30;60.00
35523;DHT22;61478;50.820;4.330;2022-09-01T16:45:14;27.20;59.80
35523;DHT22;61478;50.820;4.330;2022-09-01T16:58:57;26.80;59.00
35523;DHT22;61478;50.820;4.330;2022-09-01T17:01:47;26.80;60.00
35523;DHT22;61478;50.820;4.330;2022-09-01T17:04:47;26.70;59.60
35523;DHT22;61478;50.820;4.330;2022-09-01T17:07:19;26.90;60.20
35523;DHT22;61478;50.820;4.330;2022-09-01T17:10:05;27.00;60.50
35523;DHT22;61478;50.820;4.330;2022-09-01T17:12:51;27.10;60.40
35523;DHT22;61478;50.820;4.330;2022-09-01T17:15:37;26.90;59.70
35523;DHT22;61478;50.820;4.330;2022-09-01T17:21:05;26.80;60.70
35523;DHT22;61478;50.820;4.330;2022-09-01T17:23:38;26.80;59.80
35523;DHT22;61478;50.820;4.330;2022-09-01T17:26:18;26.80;60.40